sensor_id;sensor_type;location;lat;lon;timestamp;P1;durP1;ratioP1;P2;durP2;ratioP2
11135;SDS011;5622;50.840;4.948;2022-08-25T00:01:18;4.83;;;3.80;;
11135;SDS011;5622;50.840;4.948;2022-08-25T00:03:47;4.20;;;3.80;;
11135;SDS011;5622;50.840;4.948;2022-08-25T00:06:14;5.67;;;4.00;;
11135;SDS011;5622;50.840;4.948;2022-08-25T00:08:42;6.37;;;4.03;;
11135;SDS011;5622;50.840;4.948;2022-08-25T00:11:12;4.87;;;3.90;;
11135;SDS011;5622;50.840;4.948;2022-08-25T00:13:42;6.30;;;4.23;;
11135;SDS011;5622;50.840;4.948;2022-08-25T00:16:12;6.30;;;3.93;;
11135;SDS011;5622;50.840;4.948;2022-08-25T00:18:41;9.17;;;4.27;;
11135;SDS011;5622;50.840;4.948;2022-08-25T00:21:10;5.27;;;4.03;;
11135;SDS011;5622;50.840;4.948;2022-08-25T00:23:38;5.47;;;4.17;;
11135;SDS011;5622;50.840;4.948;2022-08-25T00:26:05;4.70;;;4.00;;
11135;SDS011;5622;50.840;4.948;2022-08-25T00:28:32;4.53;;;4.13;;
11135;SDS011;5622;50.840;4.948;2022-08-25T00:31:02;4.23;;;3.87;;
11135;SDS011;5622;50.840;4.948;2022-08-25T00:33:30;7.83;;;4.10;;
11135;SDS011;5622;50.840;4.948;2022-08-25T00:35:58;6.47;;;4.40;;
11135;SDS011;5622;50.840;4.948;2022-08-25T00:38:25;4.50;;;4.10;;
11135;SDS011;5622;50.840;4.948;2022-08-25T00:40:53;4.73;;;4.33;;
11135;SDS011;5622;50.840;4.948;2022-08-25T00:43:34;5.87;;;4.30;;
11135;SDS011;5622;50.840;4.948;2022-08-25T00:46:11;5.57;;;4.23;;
11135;SDS011;5622;50.840;4.948;2022-08-25T00:48:39;5.43;;;4.17;;
11135;SDS011;5622;50.840;4.948;2022-08-25T00:51:09;8.47;;;4.97;;
11135;SDS011;5622;50.840;4.948;2022-08-25T00:53:40;5.80;;;4.57;;
11135;SDS011;5622;50.840;4.948;2022-08-25T00:56:08;6.27;;;4.70;;
11135;SDS011;5622;50.840;4.948;2022-08-25T00:58:36;6.17;;;4.90;;
11135;SDS011;5622;50.840;4.948;2022-08-25T01:01:06;7.50;;;4.87;;
11135;SDS011;5622;50.840;4.948;2022-08-25T01:03:34;5.60;;;5.10;;
11135;SDS011;5622;50.840;4.948;2022-08-25T01:06:02;5.60;;;4.70;;
11135;SDS011;5622;50.840;4.948;2022-08-25T01:08:31;6.40;;;5.00;;
11135;SDS011;5622;50.840;4.948;2022-08-25T01:11:01;5.53;;;4.97;;
11135;SDS011;5622;50.840;4.948;2022-08-25T01:13:32;5.83;;;5.10;;
11135;SDS011;5622;50.840;4.948;2022-08-25T01:16:02;6.17;;;5.30;;
11135;SDS011;5622;50.840;4.948;2022-08-25T01:18:31;5.77;;;5.17;;
11135;SDS011;5622;50.840;4.948;2022-08-25T01:21:12;8.90;;;5.57;;
11135;SDS011;5622;50.840;4.948;2022-08-25T01:23:40;5.80;;;5.30;;
11135;SDS011;5622;50.840;4.948;2022-08-25T01:26:09;8.93;;;6.27;;
11135;SDS011;5622;50.840;4.948;2022-08-25T01:28:37;7.93;;;5.70;;
11135;SDS011;5622;50.840;4.948;2022-08-25T01:31:26;6.67;;;5.70;;
11135;SDS011;5622;50.840;4.948;2022-08-25T01:33:54;6.53;;;5.80;;
11135;SDS011;5622;50.840;4.948;2022-08-25T01:36:22;7.17;;;6.47;;
11135;SDS011;5622;50.840;4.948;2022-08-25T01:38:50;9.43;;;6.03;;
11135;SDS011;5622;50.840;4.948;2022-08-25T01:41:20;9.60;;;6.47;;
11135;SDS011;5622;50.840;4.948;2022-08-25T01:43:52;8.67;;;6.53;;
11135;SDS011;5622;50.840;4.948;2022-08-25T01:46:20;6.80;;;6.10;;
11135;SDS011;5622;50.840;4.948;2022-08-25T01:48:47;8.63;;;7.20;;
11135;SDS011;5622;50.840;4.948;2022-08-25T01:51:14;7.27;;;6.47;;
11135;SDS011;5622;50.840;4.948;2022-08-25T01:53:43;6.77;;;6.17;;
11135;SDS011;5622;50.840;4.948;2022-08-25T01:56:11;7.93;;;6.23;;
11135;SDS011;5622;50.840;4.948;2022-08-25T01:58:41;6.90;;;6.20;;
11135;SDS011;5622;50.840;4.948;2022-08-25T02:01:11;7.20;;;6.20;;
11135;SDS011;5622;50.840;4.948;2022-08-25T02:03:40;11.43;;;6.57;;
11135;SDS011;5622;50.840;4.948;2022-08-25T02:06:10;8.80;;;6.50;;
11135;SDS011;5622;50.840;4.948;2022-08-25T02:08:37;6.80;;;6.20;;
11135;SDS011;5622;50.840;4.948;2022-08-25T02:11:07;8.87;;;5.87;;
11135;SDS011;5622;50.840;4.948;2022-08-25T02:13:37;6.70;;;6.10;;
11135;SDS011;5622;50.840;4.948;2022-08-25T02:16:05;7.93;;;6.40;;
11135;SDS011;5622;50.840;4.948;2022-08-25T02:18:33;7.83;;;6.50;;
11135;SDS011;5622;50.840;4.948;2022-08-25T02:21:00;7.67;;;6.50;;
11135;SDS011;5622;50.840;4.948;2022-08-25T02:23:27;6.73;;;6.00;;
11135;SDS011;5622;50.840;4.948;2022-08-25T02:25:55;8.23;;;6.20;;
11135;SDS011;5622;50.840;4.948;2022-08-25T02:28:24;11.13;;;6.97;;
11135;SDS011;5622;50.840;4.948;2022-08-25T02:30:51;6.73;;;6.03;;
11135;SDS011;5622;50.840;4.948;2022-08-25T02:33:19;9.73;;;6.13;;
11135;SDS011;5622;50.840;4.948;2022-08-25T02:35:46;7.93;;;6.57;;
11135;SDS011;5622;50.840;4.948;2022-08-25T02:38:13;8.63;;;6.40;;
11135;SDS011;5622;50.840;4.948;2022-08-25T02:40:40;9.10;;;6.50;;
11135;SDS011;5622;50.840;4.948;2022-08-25T02:43:08;8.73;;;6.67;;
11135;SDS011;5622;50.840;4.948;2022-08-25T02:45:36;10.03;;;6.43;;
11135;SDS011;5622;50.840;4.948;2022-08-25T02:48:03;7.63;;;6.83;;
11135;SDS011;5622;50.840;4.948;2022-08-25T02:50:31;8.30;;;6.70;;
11135;SDS011;5622;50.840;4.948;2022-08-25T02:52:58;7.23;;;6.37;;
11135;SDS011;5622;50.840;4.948;2022-08-25T02:55:26;7.87;;;6.20;;
11135;SDS011;5622;50.840;4.948;2022-08-25T02:57:53;8.13;;;6.23;;
11135;SDS011;5622;50.840;4.948;2022-08-25T03:00:20;7.47;;;6.03;;
11135;SDS011;5622;50.840;4.948;2022-08-25T03:02:48;9.10;;;6.40;;
11135;SDS011;5622;50.840;4.948;2022-08-25T03:05:15;11.37;;;7.10;;
11135;SDS011;5622;50.840;4.948;2022-08-25T03:07:43;8.33;;;7.43;;
11135;SDS011;5622;50.840;4.948;2022-08-25T03:10:11;7.57;;;6.10;;
11135;SDS011;5622;50.840;4.948;2022-08-25T03:12:40;7.07;;;5.50;;
11135;SDS011;5622;50.840;4.948;2022-08-25T03:15:08;10.13;;;6.57;;
11135;SDS011;5622;50.840;4.948;2022-08-25T03:17:36;7.97;;;6.63;;
11135;SDS011;5622;50.840;4.948;2022-08-25T03:20:05;6.83;;;6.07;;
11135;SDS011;5622;50.840;4.948;2022-08-25T03:22:32;9.77;;;7.00;;
11135;SDS011;5622;50.840;4.948;2022-08-25T03:24:59;8.40;;;6.50;;
11135;SDS011;5622;50.840;4.948;2022-08-25T03:27:40;8.93;;;6.70;;
11135;SDS011;5622;50.840;4.948;2022-08-25T03:30:08;7.83;;;6.23;;
11135;SDS011;5622;50.840;4.948;2022-08-25T03:32:36;8.77;;;6.60;;
11135;SDS011;5622;50.840;4.948;2022-08-25T03:35:05;7.93;;;5.63;;
11135;SDS011;5622;50.840;4.948;2022-08-25T03:37:33;7.83;;;5.40;;
11135;SDS011;5622;50.840;4.948;2022-08-25T03:40:00;9.50;;;5.37;;
11135;SDS011;5622;50.840;4.948;2022-08-25T03:42:28;8.30;;;6.17;;
11135;SDS011;5622;50.840;4.948;2022-08-25T03:44:55;7.83;;;5.70;;
11135;SDS011;5622;50.840;4.948;2022-08-25T03:47:22;6.93;;;6.07;;
11135;SDS011;5622;50.840;4.948;2022-08-25T03:49:53;6.93;;;5.90;;
11135;SDS011;5622;50.840;4.948;2022-08-25T03:52:22;9.80;;;6.40;;
11135;SDS011;5622;50.840;4.948;2022-08-25T03:54:49;7.60;;;6.27;;
11135;SDS011;5622;50.840;4.948;2022-08-25T03:57:16;8.93;;;6.17;;
11135;SDS011;5622;50.840;4.948;2022-08-25T03:59:44;9.77;;;6.10;;
11135;SDS011;5622;50.840;4.948;2022-08-25T04:02:12;7.20;;;6.50;;
11135;SDS011;5622;50.840;4.948;2022-08-25T04:04:39;6.80;;;6.10;;
11135;SDS011;5622;50.840;4.948;2022-08-25T04:07:06;9.43;;;7.37;;
11135;SDS011;5622;50.840;4.948;2022-08-25T04:09:35;7.97;;;6.73;;
11135;SDS011;5622;50.840;4.948;2022-08-25T04:12:02;7.37;;;6.63;;
11135;SDS011;5622;50.840;4.948;2022-08-25T04:14:29;9.73;;;6.77;;
11135;SDS011;5622;50.840;4.948;2022-08-25T04:16:56;8.17;;;6.63;;
11135;SDS011;5622;50.840;4.948;2022-08-25T04:19:24;8.20;;;6.73;;
11135;SDS011;5622;50.840;4.948;2022-08-25T04:21:51;7.93;;;6.40;;
11135;SDS011;5622;50.840;4.948;2022-08-25T04:24:19;7.60;;;6.13;;
11135;SDS011;5622;50.840;4.948;2022-08-25T04:26:48;7.00;;;6.30;;
11135;SDS011;5622;50.840;4.948;2022-08-25T04:29:18;10.93;;;6.83;;
11135;SDS011;5622;50.840;4.948;2022-08-25T04:31:47;8.57;;;6.67;;
11135;SDS011;5622;50.840;4.948;2022-08-25T04:34:15;9.30;;;6.77;;
11135;SDS011;5622;50.840;4.948;2022-08-25T04:36:42;8.70;;;6.80;;
11135;SDS011;5622;50.840;4.948;2022-08-25T04:39:09;8.13;;;6.40;;
11135;SDS011;5622;50.840;4.948;2022-08-25T04:41:36;7.57;;;6.77;;
11135;SDS011;5622;50.840;4.948;2022-08-25T04:44:05;8.40;;;6.47;;
11135;SDS011;5622;50.840;4.948;2022-08-25T04:46:33;8.10;;;6.40;;
11135;SDS011;5622;50.840;4.948;2022-08-25T04:49:00;7.30;;;6.43;;
11135;SDS011;5622;50.840;4.948;2022-08-25T04:51:29;6.80;;;6.10;;
11135;SDS011;5622;50.840;4.948;2022-08-25T04:53:59;7.53;;;5.83;;
11135;SDS011;5622;50.840;4.948;2022-08-25T04:56:29;9.23;;;6.70;;
11135;SDS011;5622;50.840;4.948;2022-08-25T04:59:00;8.50;;;6.23;;
11135;SDS011;5622;50.840;4.948;2022-08-25T05:01:30;7.93;;;5.83;;
11135;SDS011;5622;50.840;4.948;2022-08-25T05:03:58;10.07;;;6.60;;
11135;SDS011;5622;50.840;4.948;2022-08-25T05:06:28;8.07;;;6.03;;
11135;SDS011;5622;50.840;4.948;2022-08-25T05:08:56;11.70;;;6.30;;
11135;SDS011;5622;50.840;4.948;2022-08-25T05:11:24;8.57;;;6.27;;
11135;SDS011;5622;50.840;4.948;2022-08-25T05:13:52;6.47;;;5.50;;
11135;SDS011;5622;50.840;4.948;2022-08-25T05:16:21;6.57;;;5.67;;
11135;SDS011;5622;50.840;4.948;2022-08-25T05:18:51;8.27;;;6.30;;
11135;SDS011;5622;50.840;4.948;2022-08-25T05:21:21;8.20;;;5.90;;
11135;SDS011;5622;50.840;4.948;2022-08-25T05:23:52;6.57;;;5.80;;
11135;SDS011;5622;50.840;4.948;2022-08-25T05:26:21;7.80;;;6.10;;
11135;SDS011;5622;50.840;4.948;2022-08-25T05:28:50;6.27;;;5.67;;
11135;SDS011;5622;50.840;4.948;2022-08-25T05:31:19;8.93;;;5.80;;
11135;SDS011;5622;50.840;4.948;2022-08-25T05:33:47;8.67;;;5.40;;
11135;SDS011;5622;50.840;4.948;2022-08-25T05:36:16;8.37;;;5.97;;
11135;SDS011;5622;50.840;4.948;2022-08-25T05:38:45;7.43;;;5.83;;
11135;SDS011;5622;50.840;4.948;2022-08-25T05:41:13;6.33;;;5.47;;
11135;SDS011;5622;50.840;4.948;2022-08-25T05:43:42;7.77;;;6.03;;
11135;SDS011;5622;50.840;4.948;2022-08-25T05:46:10;8.60;;;6.20;;
11135;SDS011;5622;50.840;4.948;2022-08-25T05:48:38;10.70;;;6.10;;
11135;SDS011;5622;50.840;4.948;2022-08-25T05:51:06;9.10;;;6.20;;
11135;SDS011;5622;50.840;4.948;2022-08-25T05:53:36;8.67;;;6.33;;
11135;SDS011;5622;50.840;4.948;2022-08-25T05:56:04;7.20;;;5.47;;
11135;SDS011;5622;50.840;4.948;2022-08-25T05:58:32;10.07;;;6.13;;
11135;SDS011;5622;50.840;4.948;2022-08-25T06:01:00;7.93;;;6.37;;
11135;SDS011;5622;50.840;4.948;2022-08-25T06:03:48;7.80;;;6.27;;
11135;SDS011;5622;50.840;4.948;2022-08-25T06:06:17;7.83;;;6.17;;
11135;SDS011;5622;50.840;4.948;2022-08-25T06:08:47;8.30;;;6.07;;
11135;SDS011;5622;50.840;4.948;2022-08-25T06:11:15;6.77;;;5.97;;
11135;SDS011;5622;50.840;4.948;2022-08-25T06:13:42;7.47;;;5.93;;
11135;SDS011;5622;50.840;4.948;2022-08-25T06:16:09;7.20;;;5.90;;
11135;SDS011;5622;50.840;4.948;2022-08-25T06:18:37;7.20;;;5.83;;
11135;SDS011;5622;50.840;4.948;2022-08-25T06:21:08;7.13;;;5.17;;
11135;SDS011;5622;50.840;4.948;2022-08-25T06:23:37;7.43;;;5.67;;
11135;SDS011;5622;50.840;4.948;2022-08-25T06:26:06;8.47;;;6.30;;
11135;SDS011;5622;50.840;4.948;2022-08-25T06:28:36;7.13;;;5.37;;
11135;SDS011;5622;50.840;4.948;2022-08-25T06:31:03;5.93;;;5.33;;
11135;SDS011;5622;50.840;4.948;2022-08-25T06:33:31;6.67;;;5.33;;
11135;SDS011;5622;50.840;4.948;2022-08-25T06:35:58;8.13;;;5.07;;
11135;SDS011;5622;50.840;4.948;2022-08-25T06:38:25;6.97;;;4.50;;
11135;SDS011;5622;50.840;4.948;2022-08-25T06:40:53;8.00;;;4.90;;
11135;SDS011;5622;50.840;4.948;2022-08-25T06:43:22;8.30;;;4.80;;
11135;SDS011;5622;50.840;4.948;2022-08-25T06:45:49;5.30;;;4.80;;
11135;SDS011;5622;50.840;4.948;2022-08-25T06:48:16;7.87;;;5.23;;
11135;SDS011;5622;50.840;4.948;2022-08-25T06:50:46;7.77;;;5.20;;
11135;SDS011;5622;50.840;4.948;2022-08-25T06:53:13;8.13;;;5.63;;
11135;SDS011;5622;50.840;4.948;2022-08-25T06:55:40;6.50;;;5.00;;
11135;SDS011;5622;50.840;4.948;2022-08-25T06:58:07;4.70;;;4.30;;
11135;SDS011;5622;50.840;4.948;2022-08-25T07:00:36;4.60;;;4.20;;
11135;SDS011;5622;50.840;4.948;2022-08-25T07:03:03;6.40;;;4.13;;
11135;SDS011;5622;50.840;4.948;2022-08-25T07:05:30;4.90;;;4.30;;
11135;SDS011;5622;50.840;4.948;2022-08-25T07:07:58;6.37;;;4.60;;
11135;SDS011;5622;50.840;4.948;2022-08-25T07:10:25;5.93;;;4.33;;
11135;SDS011;5622;50.840;4.948;2022-08-25T07:12:52;4.77;;;4.07;;
11135;SDS011;5622;50.840;4.948;2022-08-25T07:15:19;5.60;;;3.93;;
11135;SDS011;5622;50.840;4.948;2022-08-25T07:17:48;5.03;;;4.00;;
11135;SDS011;5622;50.840;4.948;2022-08-25T07:20:16;4.23;;;3.80;;
11135;SDS011;5622;50.840;4.948;2022-08-25T07:22:43;6.03;;;4.00;;
11135;SDS011;5622;50.840;4.948;2022-08-25T07:25:10;5.97;;;3.90;;
11135;SDS011;5622;50.840;4.948;2022-08-25T07:27:38;4.60;;;4.10;;
11135;SDS011;5622;50.840;4.948;2022-08-25T07:30:06;5.77;;;3.87;;
11135;SDS011;5622;50.840;4.948;2022-08-25T07:32:34;10.97;;;4.57;;
11135;SDS011;5622;50.840;4.948;2022-08-25T07:35:03;12.10;;;4.33;;
11135;SDS011;5622;50.840;4.948;2022-08-25T07:37:43;7.37;;;3.87;;
11135;SDS011;5622;50.840;4.948;2022-08-25T07:40:12;10.30;;;4.87;;
11135;SDS011;5622;50.840;4.948;2022-08-25T07:42:41;6.53;;;4.23;;
11135;SDS011;5622;50.840;4.948;2022-08-25T07:45:09;4.80;;;4.23;;
11135;SDS011;5622;50.840;4.948;2022-08-25T07:47:37;5.83;;;5.10;;
11135;SDS011;5622;50.840;4.948;2022-08-25T07:50:07;5.33;;;3.93;;
11135;SDS011;5622;50.840;4.948;2022-08-25T07:52:35;6.53;;;4.50;;
11135;SDS011;5622;50.840;4.948;2022-08-25T07:55:03;6.57;;;4.90;;
11135;SDS011;5622;50.840;4.948;2022-08-25T07:57:31;7.37;;;4.17;;
11135;SDS011;5622;50.840;4.948;2022-08-25T07:59:59;8.33;;;5.17;;
11135;SDS011;5622;50.840;4.948;2022-08-25T08:02:26;5.07;;;4.40;;
11135;SDS011;5622;50.840;4.948;2022-08-25T08:04:54;9.27;;;4.80;;
11135;SDS011;5622;50.840;4.948;2022-08-25T08:07:24;7.97;;;5.10;;
11135;SDS011;5622;50.840;4.948;2022-08-25T08:09:53;7.50;;;4.27;;
11135;SDS011;5622;50.840;4.948;2022-08-25T08:12:20;7.57;;;4.07;;
11135;SDS011;5622;50.840;4.948;2022-08-25T08:14:47;10.80;;;4.60;;
11135;SDS011;5622;50.840;4.948;2022-08-25T08:17:15;5.30;;;3.90;;
11135;SDS011;5622;50.840;4.948;2022-08-25T08:19:42;7.37;;;4.37;;
11135;SDS011;5622;50.840;4.948;2022-08-25T08:22:09;7.83;;;4.43;;
11135;SDS011;5622;50.840;4.948;2022-08-25T08:24:40;7.53;;;4.10;;
11135;SDS011;5622;50.840;4.948;2022-08-25T08:27:09;5.93;;;3.90;;
11135;SDS011;5622;50.840;4.948;2022-08-25T08:29:38;8.77;;;3.97;;
11135;SDS011;5622;50.840;4.948;2022-08-25T08:32:07;10.32;;;3.83;;
11135;SDS011;5622;50.840;4.948;2022-08-25T08:34:37;3.83;;;3.28;;
11135;SDS011;5622;50.840;4.948;2022-08-25T08:37:06;6.85;;;4.07;;
11135;SDS011;5622;50.840;4.948;2022-08-25T08:39:35;9.63;;;3.63;;
11135;SDS011;5622;50.840;4.948;2022-08-25T08:42:06;6.82;;;4.28;;
11135;SDS011;5622;50.840;4.948;2022-08-25T08:47:52;5.60;;;3.35;;
11135;SDS011;5622;50.840;4.948;2022-08-25T08:50:37;8.20;;;3.67;;
11135;SDS011;5622;50.840;4.948;2022-08-25T08:53:13;4.57;;;3.63;;
11135;SDS011;5622;50.840;4.948;2022-08-25T08:55:48;6.85;;;3.92;;
11135;SDS011;5622;50.840;4.948;2022-08-25T08:58:21;8.43;;;3.80;;
11135;SDS011;5622;50.840;4.948;2022-08-25T09:00:51;6.63;;;3.78;;
11135;SDS011;5622;50.840;4.948;2022-08-25T09:03:26;5.43;;;3.47;;
11135;SDS011;5622;50.840;4.948;2022-08-25T09:05:59;7.50;;;3.38;;
11135;SDS011;5622;50.840;4.948;2022-08-25T09:08:31;7.28;;;3.28;;
11135;SDS011;5622;50.840;4.948;2022-08-25T09:11:00;7.40;;;3.50;;
11135;SDS011;5622;50.840;4.948;2022-08-25T09:13:38;4.78;;;3.38;;
11135;SDS011;5622;50.840;4.948;2022-08-25T09:16:15;6.13;;;3.78;;
11135;SDS011;5622;50.840;4.948;2022-08-25T09:19:10;12.93;;;3.45;;
11135;SDS011;5622;50.840;4.948;2022-08-25T09:21:54;5.95;;;3.15;;
11135;SDS011;5622;50.840;4.948;2022-08-25T09:24:39;6.72;;;3.30;;
11135;SDS011;5622;50.840;4.948;2022-08-25T09:27:17;6.57;;;3.38;;
11135;SDS011;5622;50.840;4.948;2022-08-25T09:29:58;8.05;;;3.25;;
11135;SDS011;5622;50.840;4.948;2022-08-25T09:32:27;7.22;;;3.22;;
11135;SDS011;5622;50.840;4.948;2022-08-25T09:34:58;8.15;;;3.30;;
11135;SDS011;5622;50.840;4.948;2022-08-25T09:37:27;6.70;;;3.20;;
11135;SDS011;5622;50.840;4.948;2022-08-25T09:39:55;7.30;;;3.03;;
11135;SDS011;5622;50.840;4.948;2022-08-25T09:42:22;5.00;;;3.20;;
11135;SDS011;5622;50.840;4.948;2022-08-25T09:45:14;6.20;;;3.28;;
11135;SDS011;5622;50.840;4.948;2022-08-25T09:47:43;6.57;;;3.13;;
11135;SDS011;5622;50.840;4.948;2022-08-25T09:50:14;6.82;;;2.75;;
11135;SDS011;5622;50.840;4.948;2022-08-25T09:52:43;4.88;;;2.75;;
11135;SDS011;5622;50.840;4.948;2022-08-25T09:55:21;8.95;;;2.67;;
11135;SDS011;5622;50.840;4.948;2022-08-25T09:57:55;5.75;;;3.08;;
11135;SDS011;5622;50.840;4.948;2022-08-25T10:00:26;7.13;;;2.95;;
11135;SDS011;5622;50.840;4.948;2022-08-25T10:03:06;5.25;;;2.90;;
11135;SDS011;5622;50.840;4.948;2022-08-25T10:05:37;2.85;;;2.53;;
11135;SDS011;5622;50.840;4.948;2022-08-25T10:08:21;4.18;;;2.67;;
11135;SDS011;5622;50.840;4.948;2022-08-25T10:10:55;5.35;;;2.65;;
11135;SDS011;5622;50.840;4.948;2022-08-25T10:13:32;2.58;;;2.38;;
11135;SDS011;5622;50.840;4.948;2022-08-25T10:16:04;3.60;;;2.30;;
11135;SDS011;5622;50.840;4.948;2022-08-25T10:18:33;6.28;;;2.60;;
11135;SDS011;5622;50.840;4.948;2022-08-25T10:21:02;2.63;;;2.42;;
11135;SDS011;5622;50.840;4.948;2022-08-25T10:23:36;3.65;;;2.35;;
11135;SDS011;5622;50.840;4.948;2022-08-25T10:26:10;3.78;;;2.25;;
11135;SDS011;5622;50.840;4.948;2022-08-25T10:28:48;3.40;;;2.40;;
11135;SDS011;5622;50.840;4.948;2022-08-25T10:31:32;6.53;;;2.40;;
11135;SDS011;5622;50.840;4.948;2022-08-25T10:34:07;3.13;;;2.40;;
11135;SDS011;5622;50.840;4.948;2022-08-25T10:36:47;2.45;;;2.20;;
11135;SDS011;5622;50.840;4.948;2022-08-25T10:39:25;3.20;;;2.45;;
11135;SDS011;5622;50.840;4.948;2022-08-25T10:42:03;5.60;;;2.58;;
11135;SDS011;5622;50.840;4.948;2022-08-25T10:44:48;2.58;;;2.38;;
11135;SDS011;5622;50.840;4.948;2022-08-25T10:50:38;2.42;;;2.20;;
11135;SDS011;5622;50.840;4.948;2022-08-25T10:53:14;4.80;;;2.78;;
11135;SDS011;5622;50.840;4.948;2022-08-25T10:55:51;5.75;;;2.40;;
11135;SDS011;5622;50.840;4.948;2022-08-25T10:58:30;5.28;;;2.78;;
11135;SDS011;5622;50.840;4.948;2022-08-25T11:01:27;7.72;;;2.40;;
11135;SDS011;5622;50.840;4.948;2022-08-25T11:04:06;3.88;;;2.20;;
11135;SDS011;5622;50.840;4.948;2022-08-25T11:06:38;2.38;;;2.17;;
11135;SDS011;5622;50.840;4.948;2022-08-25T11:09:10;3.30;;;2.22;;
11135;SDS011;5622;50.840;4.948;2022-08-25T11:11:43;5.60;;;2.50;;
11135;SDS011;5622;50.840;4.948;2022-08-25T11:14:15;5.82;;;2.60;;
11135;SDS011;5622;50.840;4.948;2022-08-25T11:16:47;4.60;;;2.53;;
11135;SDS011;5622;50.840;4.948;2022-08-25T11:19:20;2.70;;;2.42;;
11135;SDS011;5622;50.840;4.948;2022-08-25T11:21:52;2.67;;;2.47;;
11135;SDS011;5622;50.840;4.948;2022-08-25T11:24:35;3.03;;;2.55;;
11135;SDS011;5622;50.840;4.948;2022-08-25T11:27:22;2.60;;;2.40;;
11135;SDS011;5622;50.840;4.948;2022-08-25T11:29:58;2.63;;;2.42;;
11135;SDS011;5622;50.840;4.948;2022-08-25T11:32:31;2.60;;;2.35;;
11135;SDS011;5622;50.840;4.948;2022-08-25T11:35:02;2.60;;;2.38;;
11135;SDS011;5622;50.840;4.948;2022-08-25T11:37:31;6.40;;;2.47;;
11135;SDS011;5622;50.840;4.948;2022-08-25T11:40:07;3.65;;;2.28;;
11135;SDS011;5622;50.840;4.948;2022-08-25T11:42:50;2.65;;;2.33;;
11135;SDS011;5622;50.840;4.948;2022-08-25T11:45:30;3.17;;;2.38;;
11135;SDS011;5622;50.840;4.948;2022-08-25T11:48:17;2.50;;;2.30;;
11135;SDS011;5622;50.840;4.948;2022-08-25T11:50:56;3.50;;;2.55;;
11135;SDS011;5622;50.840;4.948;2022-08-25T11:53:26;6.15;;;2.60;;
11135;SDS011;5622;50.840;4.948;2022-08-25T11:55:55;5.13;;;2.33;;
11135;SDS011;5622;50.840;4.948;2022-08-25T11:58:30;3.33;;;2.63;;
11135;SDS011;5622;50.840;4.948;2022-08-25T12:01:03;3.63;;;2.90;;
11135;SDS011;5622;50.840;4.948;2022-08-25T12:03:49;4.93;;;2.42;;
11135;SDS011;5622;50.840;4.948;2022-08-25T12:06:26;3.03;;;2.35;;
11135;SDS011;5622;50.840;4.948;2022-08-25T12:11:48;4.75;;;2.67;;
11135;SDS011;5622;50.840;4.948;2022-08-25T12:14:37;4.20;;;2.20;;
11135;SDS011;5622;50.840;4.948;2022-08-25T12:17:22;3.28;;;2.22;;
11135;SDS011;5622;50.840;4.948;2022-08-25T12:19:57;2.60;;;2.40;;
11135;SDS011;5622;50.840;4.948;2022-08-25T12:22:39;2.58;;;2.38;;
11135;SDS011;5622;50.840;4.948;2022-08-25T12:31:46;6.05;;;2.60;;
11135;SDS011;5622;50.840;4.948;2022-08-25T12:34:40;6.18;;;2.92;;
11135;SDS011;5622;50.840;4.948;2022-08-25T12:37:29;2.85;;;2.60;;
11135;SDS011;5622;50.840;4.948;2022-08-25T12:39:59;3.03;;;2.30;;
11135;SDS011;5622;50.840;4.948;2022-08-25T12:42:29;5.97;;;3.00;;
11135;SDS011;5622;50.840;4.948;2022-08-25T12:45:09;5.85;;;2.90;;
11135;SDS011;5622;50.840;4.948;2022-08-25T12:47:40;3.63;;;2.72;;
11135;SDS011;5622;50.840;4.948;2022-08-25T12:50:25;3.63;;;2.40;;
11135;SDS011;5622;50.840;4.948;2022-08-25T12:52:58;2.65;;;2.45;;
11135;SDS011;5622;50.840;4.948;2022-08-25T12:55:35;3.40;;;2.65;;
11135;SDS011;5622;50.840;4.948;2022-08-25T12:58:05;3.25;;;2.47;;
11135;SDS011;5622;50.840;4.948;2022-08-25T13:00:35;2.85;;;2.50;;
11135;SDS011;5622;50.840;4.948;2022-08-25T13:03:20;3.72;;;2.33;;
11135;SDS011;5622;50.840;4.948;2022-08-25T13:06:21;2.58;;;2.38;;
11135;SDS011;5622;50.840;4.948;2022-08-25T13:12:13;2.63;;;2.42;;
11135;SDS011;5622;50.840;4.948;2022-08-25T13:14:43;2.70;;;2.50;;
11135;SDS011;5622;50.840;4.948;2022-08-25T13:17:23;5.13;;;2.47;;
11135;SDS011;5622;50.840;4.948;2022-08-25T13:22:38;2.60;;;2.40;;
11135;SDS011;5622;50.840;4.948;2022-08-25T13:25:05;2.95;;;2.65;;
11135;SDS011;5622;50.840;4.948;2022-08-25T13:27:41;2.70;;;2.50;;
11135;SDS011;5622;50.840;4.948;2022-08-25T13:30:18;5.25;;;2.30;;
11135;SDS011;5622;50.840;4.948;2022-08-25T13:32:50;5.22;;;2.85;;
11135;SDS011;5622;50.840;4.948;2022-08-25T13:35:18;3.70;;;2.67;;
11135;SDS011;5622;50.840;4.948;2022-08-25T13:37:48;3.78;;;2.60;;
11135;SDS011;5622;50.840;4.948;2022-08-25T13:40:21;4.45;;;2.60;;
11135;SDS011;5622;50.840;4.948;2022-08-25T13:42:53;4.93;;;2.65;;
11135;SDS011;5622;50.840;4.948;2022-08-25T13:45:24;3.38;;;2.63;;
11135;SDS011;5622;50.840;4.948;2022-08-25T13:47:53;2.70;;;2.50;;
11135;SDS011;5622;50.840;4.948;2022-08-25T13:50:27;3.95;;;2.97;;
11135;SDS011;5622;50.840;4.948;2022-08-25T13:52:57;5.97;;;2.80;;
11135;SDS011;5622;50.840;4.948;2022-08-25T13:55:28;2.88;;;2.30;;
11135;SDS011;5622;50.840;4.948;2022-08-25T13:58:00;3.20;;;2.50;;
11135;SDS011;5622;50.840;4.948;2022-08-25T14:00:30;3.63;;;2.70;;
11135;SDS011;5622;50.840;4.948;2022-08-25T14:02:59;3.38;;;2.63;;
11135;SDS011;5622;50.840;4.948;2022-08-25T14:05:33;3.03;;;2.38;;
11135;SDS011;5622;50.840;4.948;2022-08-25T14:08:04;3.13;;;2.65;;
11135;SDS011;5622;50.840;4.948;2022-08-25T14:10:34;4.43;;;2.78;;
11135;SDS011;5622;50.840;4.948;2022-08-25T14:13:10;3.53;;;2.72;;
11135;SDS011;5622;50.840;4.948;2022-08-25T14:15:40;3.92;;;3.10;;
11135;SDS011;5622;50.840;4.948;2022-08-25T14:18:11;5.15;;;2.70;;
11135;SDS011;5622;50.840;4.948;2022-08-25T14:20:43;4.55;;;2.65;;
11135;SDS011;5622;50.840;4.948;2022-08-25T14:23:13;2.90;;;2.70;;
11135;SDS011;5622;50.840;4.948;2022-08-25T14:25:42;2.92;;;2.67;;
11135;SDS011;5622;50.840;4.948;2022-08-25T14:31:17;2.75;;;2.55;;
11135;SDS011;5622;50.840;4.948;2022-08-25T14:33:50;4.38;;;2.70;;
11135;SDS011;5622;50.840;4.948;2022-08-25T14:36:19;2.63;;;2.42;;
11135;SDS011;5622;50.840;4.948;2022-08-25T14:38:50;3.28;;;2.53;;
11135;SDS011;5622;50.840;4.948;2022-08-25T14:41:18;3.40;;;2.50;;
11135;SDS011;5622;50.840;4.948;2022-08-25T14:43:45;3.58;;;2.47;;
11135;SDS011;5622;50.840;4.948;2022-08-25T14:46:13;5.65;;;2.70;;
11135;SDS011;5622;50.840;4.948;2022-08-25T14:48:45;3.05;;;2.83;;
11135;SDS011;5622;50.840;4.948;2022-08-25T14:51:16;4.18;;;2.85;;
11135;SDS011;5622;50.840;4.948;2022-08-25T14:53:43;2.88;;;2.50;;
11135;SDS011;5622;50.840;4.948;2022-08-25T14:56:10;5.32;;;2.85;;
11135;SDS011;5622;50.840;4.948;2022-08-25T14:58:38;5.43;;;2.47;;
11135;SDS011;5622;50.840;4.948;2022-08-25T15:01:05;3.45;;;2.80;;
11135;SDS011;5622;50.840;4.948;2022-08-25T15:03:38;2.97;;;2.78;;
11135;SDS011;5622;50.840;4.948;2022-08-25T15:06:07;3.28;;;2.45;;
11135;SDS011;5622;50.840;4.948;2022-08-25T15:08:37;2.75;;;2.55;;
11135;SDS011;5622;50.840;4.948;2022-08-25T15:11:22;2.88;;;2.50;;
11135;SDS011;5622;50.840;4.948;2022-08-25T15:13:49;4.40;;;2.53;;
11135;SDS011;5622;50.840;4.948;2022-08-25T15:16:17;3.53;;;2.50;;
11135;SDS011;5622;50.840;4.948;2022-08-25T15:18:50;6.55;;;3.13;;
11135;SDS011;5622;50.840;4.948;2022-08-25T15:21:17;4.07;;;2.72;;
11135;SDS011;5622;50.840;4.948;2022-08-25T15:23:45;3.50;;;2.70;;
11135;SDS011;5622;50.840;4.948;2022-08-25T15:26:13;5.22;;;2.50;;
11135;SDS011;5622;50.840;4.948;2022-08-25T15:28:42;4.65;;;2.88;;
11135;SDS011;5622;50.840;4.948;2022-08-25T15:31:12;3.15;;;2.67;;
11135;SDS011;5622;50.840;4.948;2022-08-25T15:33:39;2.60;;;2.40;;
11135;SDS011;5622;50.840;4.948;2022-08-25T15:36:09;3.03;;;2.60;;
11135;SDS011;5622;50.840;4.948;2022-08-25T15:38:37;4.65;;;2.72;;
11135;SDS011;5622;50.840;4.948;2022-08-25T15:41:06;2.67;;;2.47;;
11135;SDS011;5622;50.840;4.948;2022-08-25T15:43:34;3.20;;;2.90;;
11135;SDS011;5622;50.840;4.948;2022-08-25T15:46:02;4.75;;;2.50;;
11135;SDS011;5622;50.840;4.948;2022-08-25T15:48:30;4.38;;;2.65;;